sensor_id;sensor_type;location;lat;lon;timestamp;P1;durP1;ratioP1;P2;durP2;ratioP2
71910;SDS011;59783;52.232;5.170;2023-03-01T00:01:47;35.10;;;30.55;;
71910;SDS011;59783;52.232;5.170;2023-03-01T00:04:12;34.65;;;28.92;;
71910;SDS011;59783;52.232;5.170;2023-03-01T00:06:37;37.63;;;33.37;;
71910;SDS011;59783;52.232;5.170;2023-03-01T00:09:03;39.00;;;34.90;;
71910;SDS011;59783;52.232;5.170;2023-03-01T00:11:29;36.55;;;32.80;;
71910;SDS011;59783;52.232;5.170;2023-03-01T00:13:56;37.40;;;31.42;;
71910;SDS011;59783;52.232;5.170;2023-03-01T00:16:24;34.75;;;28.90;;
71910;SDS011;59783;52.232;5.170;2023-03-01T00:18:50;36.65;;;31.60;;
71910;SDS011;59783;52.232;5.170;2023-03-01T00:21:15;38.83;;;30.55;;
71910;SDS011;59783;52.232;5.170;2023-03-01T00:23:41;37.47;;;28.77;;
71910;SDS011;59783;52.232;5.170;2023-03-01T00:26:08;34.72;;;29.05;;
71910;SDS011;59783;52.232;5.170;2023-03-01T00:28:34;38.63;;;34.08;;
71910;SDS011;59783;52.232;5.170;2023-03-01T00:31:06;36.08;;;31.08;;
71910;SDS011;59783;52.232;5.170;2023-03-01T00:33:31;40.03;;;35.88;;
71910;SDS011;59783;52.232;5.170;2023-03-01T00:36:00;35.83;;;31.42;;
71910;SDS011;59783;52.232;5.170;2023-03-01T00:38:25;35.95;;;27.90;;
71910;SDS011;59783;52.232;5.170;2023-03-01T00:40:50;36.70;;;31.05;;
71910;SDS011;59783;52.232;5.170;2023-03-01T00:43:15;36.90;;;30.57;;
71910;SDS011;59783;52.232;5.170;2023-03-01T00:45:40;36.00;;;29.27;;
71910;SDS011;59783;52.232;5.170;2023-03-01T00:48:06;37.30;;;33.07;;
71910;SDS011;59783;52.232;5.170;2023-03-01T00:50:31;35.63;;;29.88;;
71910;SDS011;59783;52.232;5.170;2023-03-01T00:52:56;36.47;;;31.53;;
71910;SDS011;59783;52.232;5.170;2023-03-01T00:55:22;37.30;;;33.07;;
71910;SDS011;59783;52.232;5.170;2023-03-01T00:57:47;34.63;;;29.30;;
71910;SDS011;59783;52.232;5.170;2023-03-01T01:00:12;34.50;;;29.03;;
71910;SDS011;59783;52.232;5.170;2023-03-01T01:02:37;33.33;;;27.08;;
71910;SDS011;59783;52.232;5.170;2023-03-01T01:05:03;37.87;;;27.70;;
71910;SDS011;59783;52.232;5.170;2023-03-01T01:07:28;35.85;;;29.98;;
71910;SDS011;59783;52.232;5.170;2023-03-01T01:09:53;35.45;;;30.52;;
71910;SDS011;59783;52.232;5.170;2023-03-01T01:12:19;34.17;;;27.07;;
71910;SDS011;59783;52.232;5.170;2023-03-01T01:14:44;38.33;;;30.57;;
71910;SDS011;59783;52.232;5.170;2023-03-01T01:17:09;36.93;;;29.20;;
71910;SDS011;59783;52.232;5.170;2023-03-01T01:19:34;35.47;;;29.30;;
71910;SDS011;59783;52.232;5.170;2023-03-01T01:21:59;35.73;;;31.87;;
71910;SDS011;59783;52.232;5.170;2023-03-01T01:24:25;36.83;;;28.17;;
71910;SDS011;59783;52.232;5.170;2023-03-01T01:26:50;40.27;;;31.47;;
71910;SDS011;59783;52.232;5.170;2023-03-01T01:29:15;36.27;;;27.53;;
71910;SDS011;59783;52.232;5.170;2023-03-01T01:31:41;37.93;;;28.30;;
71910;SDS011;59783;52.232;5.170;2023-03-01T01:34:07;37.28;;;30.40;;
71910;SDS011;59783;52.232;5.170;2023-03-01T01:36:32;37.78;;;28.15;;
71910;SDS011;59783;52.232;5.170;2023-03-01T01:38:58;33.75;;;27.63;;
71910;SDS011;59783;52.232;5.170;2023-03-01T01:41:23;39.20;;;27.60;;
71910;SDS011;59783;52.232;5.170;2023-03-01T01:43:49;34.47;;;27.52;;
71910;SDS011;59783;52.232;5.170;2023-03-01T01:46:33;35.10;;;28.95;;
71910;SDS011;59783;52.232;5.170;2023-03-01T01:49:05;33.97;;;28.17;;
71910;SDS011;59783;52.232;5.170;2023-03-01T01:51:32;35.92;;;27.77;;
71910;SDS011;59783;52.232;5.170;2023-03-01T01:54:03;35.45;;;28.13;;
71910;SDS011;59783;52.232;5.170;2023-03-01T01:56:30;35.45;;;28.67;;
71910;SDS011;59783;52.232;5.170;2023-03-01T01:58:56;37.42;;;28.25;;
71910;SDS011;59783;52.232;5.170;2023-03-01T02:01:21;32.10;;;27.23;;
71910;SDS011;59783;52.232;5.170;2023-03-01T02:03:47;36.10;;;30.40;;
71910;SDS011;59783;52.232;5.170;2023-03-01T02:06:15;33.60;;;28.05;;
71910;SDS011;59783;52.232;5.170;2023-03-01T02:08:42;34.63;;;29.73;;
71910;SDS011;59783;52.232;5.170;2023-03-01T02:11:08;32.78;;;26.77;;
71910;SDS011;59783;52.232;5.170;2023-03-01T02:13:33;35.72;;;28.80;;
71910;SDS011;59783;52.232;5.170;2023-03-01T02:16:02;37.20;;;29.45;;
71910;SDS011;59783;52.232;5.170;2023-03-01T02:18:27;35.38;;;27.98;;
71910;SDS011;59783;52.232;5.170;2023-03-01T02:23:18;34.92;;;26.70;;
71910;SDS011;59783;52.232;5.170;2023-03-01T02:25:50;34.73;;;28.93;;
71910;SDS011;59783;52.232;5.170;2023-03-01T02:30:43;35.63;;;27.37;;
71910;SDS011;59783;52.232;5.170;2023-03-01T02:33:27;35.45;;;30.38;;
71910;SDS011;59783;52.232;5.170;2023-03-01T02:35:53;36.45;;;30.15;;
71910;SDS011;59783;52.232;5.170;2023-03-01T02:38:19;34.70;;;27.50;;
71910;SDS011;59783;52.232;5.170;2023-03-01T02:40:45;33.45;;;27.92;;
71910;SDS011;59783;52.232;5.170;2023-03-01T02:43:10;34.03;;;27.98;;
71910;SDS011;59783;52.232;5.170;2023-03-01T02:45:36;36.28;;;28.65;;
71910;SDS011;59783;52.232;5.170;2023-03-01T02:48:02;33.87;;;27.23;;
71910;SDS011;59783;52.232;5.170;2023-03-01T02:52:57;35.35;;;29.48;;
71910;SDS011;59783;52.232;5.170;2023-03-01T02:55:25;32.72;;;28.00;;
71910;SDS011;59783;52.232;5.170;2023-03-01T02:57:50;31.52;;;26.80;;
71910;SDS011;59783;52.232;5.170;2023-03-01T03:00:17;32.13;;;28.08;;
71910;SDS011;59783;52.232;5.170;2023-03-01T03:02:47;30.90;;;26.48;;
71910;SDS011;59783;52.232;5.170;2023-03-01T03:05:15;34.15;;;27.67;;
71910;SDS011;59783;52.232;5.170;2023-03-01T03:07:41;35.17;;;28.30;;
71910;SDS011;59783;52.232;5.170;2023-03-01T03:10:08;31.75;;;26.75;;
71910;SDS011;59783;52.232;5.170;2023-03-01T03:12:33;33.35;;;26.90;;
71910;SDS011;59783;52.232;5.170;2023-03-01T03:14:59;32.43;;;27.43;;
71910;SDS011;59783;52.232;5.170;2023-03-01T03:17:24;33.10;;;26.03;;
71910;SDS011;59783;52.232;5.170;2023-03-01T03:19:49;33.73;;;29.93;;
71910;SDS011;59783;52.232;5.170;2023-03-01T03:22:14;29.52;;;25.77;;
71910;SDS011;59783;52.232;5.170;2023-03-01T03:24:40;34.37;;;28.70;;
71910;SDS011;59783;52.232;5.170;2023-03-01T03:27:05;32.67;;;26.57;;
71910;SDS011;59783;52.232;5.170;2023-03-01T03:29:30;32.60;;;28.60;;
71910;SDS011;59783;52.232;5.170;2023-03-01T03:31:55;33.20;;;29.65;;
71910;SDS011;59783;52.232;5.170;2023-03-01T03:34:21;32.27;;;26.77;;
71910;SDS011;59783;52.232;5.170;2023-03-01T03:36:46;34.20;;;30.17;;
71910;SDS011;59783;52.232;5.170;2023-03-01T03:39:11;32.20;;;28.80;;
71910;SDS011;59783;52.232;5.170;2023-03-01T03:41:36;32.27;;;27.50;;
71910;SDS011;59783;52.232;5.170;2023-03-01T03:44:02;30.67;;;27.00;;
71910;SDS011;59783;52.232;5.170;2023-03-01T03:46:27;31.65;;;28.25;;
71910;SDS011;59783;52.232;5.170;2023-03-01T03:48:52;30.63;;;27.33;;
71910;SDS011;59783;52.232;5.170;2023-03-01T03:51:18;30.17;;;26.53;;
71910;SDS011;59783;52.232;5.170;2023-03-01T03:53:43;29.25;;;25.65;;
71910;SDS011;59783;52.232;5.170;2023-03-01T03:56:09;31.13;;;27.83;;
71910;SDS011;59783;52.232;5.170;2023-03-01T03:58:34;32.55;;;29.05;;
71910;SDS011;59783;52.232;5.170;2023-03-01T04:00:59;33.43;;;25.90;;
71910;SDS011;59783;52.232;5.170;2023-03-01T04:03:26;27.27;;;24.30;;
71910;SDS011;59783;52.232;5.170;2023-03-01T04:05:51;31.38;;;27.65;;
71910;SDS011;59783;52.232;5.170;2023-03-01T04:08:17;32.60;;;28.00;;
71910;SDS011;59783;52.232;5.170;2023-03-01T04:10:45;31.23;;;25.83;;
71910;SDS011;59783;52.232;5.170;2023-03-01T04:13:12;30.42;;;26.20;;
71910;SDS011;59783;52.232;5.170;2023-03-01T04:15:37;30.02;;;26.77;;
71910;SDS011;59783;52.232;5.170;2023-03-01T04:18:03;31.20;;;27.85;;
71910;SDS011;59783;52.232;5.170;2023-03-01T04:20:29;29.70;;;26.53;;
71910;SDS011;59783;52.232;5.170;2023-03-01T04:23:00;29.15;;;26.15;;
71910;SDS011;59783;52.232;5.170;2023-03-01T04:25:36;29.55;;;26.33;;
71910;SDS011;59783;52.232;5.170;2023-03-01T04:28:01;29.67;;;26.50;;
71910;SDS011;59783;52.232;5.170;2023-03-01T04:30:26;32.50;;;27.63;;
71910;SDS011;59783;52.232;5.170;2023-03-01T04:32:52;30.07;;;26.83;;
71910;SDS011;59783;52.232;5.170;2023-03-01T04:35:17;30.10;;;26.87;;
71910;SDS011;59783;52.232;5.170;2023-03-01T04:37:42;29.53;;;25.80;;
71910;SDS011;59783;52.232;5.170;2023-03-01T04:40:07;28.57;;;25.33;;
71910;SDS011;59783;52.232;5.170;2023-03-01T04:42:38;32.50;;;28.90;;
71910;SDS011;59783;52.232;5.170;2023-03-01T04:45:04;31.30;;;27.30;;
71910;SDS011;59783;52.232;5.170;2023-03-01T04:47:37;28.67;;;25.55;;
71910;SDS011;59783;52.232;5.170;2023-03-01T04:50:03;30.42;;;26.00;;
71910;SDS011;59783;52.232;5.170;2023-03-01T04:52:28;32.33;;;29.02;;
71910;SDS011;59783;52.232;5.170;2023-03-01T04:54:53;28.37;;;25.37;;
71910;SDS011;59783;52.232;5.170;2023-03-01T04:57:19;29.00;;;25.40;;
71910;SDS011;59783;52.232;5.170;2023-03-01T04:59:44;29.92;;;26.67;;
71910;SDS011;59783;52.232;5.170;2023-03-01T05:02:10;30.00;;;26.43;;
71910;SDS011;59783;52.232;5.170;2023-03-01T05:04:35;29.20;;;24.63;;
71910;SDS011;59783;52.232;5.170;2023-03-01T05:07:00;28.90;;;25.73;;
71910;SDS011;59783;52.232;5.170;2023-03-01T05:09:25;30.37;;;25.20;;
71910;SDS011;59783;52.232;5.170;2023-03-01T05:11:50;28.45;;;25.35;;
71910;SDS011;59783;52.232;5.170;2023-03-01T05:14:16;34.20;;;27.35;;
71910;SDS011;59783;52.232;5.170;2023-03-01T05:16:42;36.13;;;32.33;;
71910;SDS011;59783;52.232;5.170;2023-03-01T05:19:07;30.03;;;25.93;;
71910;SDS011;59783;52.232;5.170;2023-03-01T05:21:40;34.70;;;31.00;;
71910;SDS011;59783;52.232;5.170;2023-03-01T05:24:26;29.42;;;25.95;;
71910;SDS011;59783;52.232;5.170;2023-03-01T05:26:51;31.42;;;25.65;;
71910;SDS011;59783;52.232;5.170;2023-03-01T05:29:17;34.75;;;27.88;;
71910;SDS011;59783;52.232;5.170;2023-03-01T05:31:42;34.83;;;30.85;;
71910;SDS011;59783;52.232;5.170;2023-03-01T05:34:08;30.20;;;26.07;;
71910;SDS011;59783;52.232;5.170;2023-03-01T05:36:33;35.97;;;31.33;;
71910;SDS011;59783;52.232;5.170;2023-03-01T05:38:59;34.20;;;27.95;;
71910;SDS011;59783;52.232;5.170;2023-03-01T05:41:24;32.72;;;28.25;;
71910;SDS011;59783;52.232;5.170;2023-03-01T05:43:50;32.83;;;26.70;;
71910;SDS011;59783;52.232;5.170;2023-03-01T05:46:15;31.93;;;28.07;;
71910;SDS011;59783;52.232;5.170;2023-03-01T05:48:40;34.20;;;29.77;;
71910;SDS011;59783;52.232;5.170;2023-03-01T05:51:05;33.53;;;27.70;;
71910;SDS011;59783;52.232;5.170;2023-03-01T05:53:31;33.75;;;27.85;;
71910;SDS011;59783;52.232;5.170;2023-03-01T05:55:56;33.10;;;27.53;;
71910;SDS011;59783;52.232;5.170;2023-03-01T05:58:21;31.60;;;27.30;;
71910;SDS011;59783;52.232;5.170;2023-03-01T06:00:47;37.23;;;30.47;;
71910;SDS011;59783;52.232;5.170;2023-03-01T06:03:13;34.65;;;28.92;;
71910;SDS011;59783;52.232;5.170;2023-03-01T06:05:39;34.90;;;27.02;;
71910;SDS011;59783;52.232;5.170;2023-03-01T06:08:04;35.25;;;29.55;;
71910;SDS011;59783;52.232;5.170;2023-03-01T06:10:30;34.60;;;28.55;;
71910;SDS011;59783;52.232;5.170;2023-03-01T06:12:55;35.97;;;28.43;;
71910;SDS011;59783;52.232;5.170;2023-03-01T06:15:20;34.67;;;28.40;;
71910;SDS011;59783;52.232;5.170;2023-03-01T06:17:46;34.72;;;29.60;;
71910;SDS011;59783;52.232;5.170;2023-03-01T06:20:15;34.75;;;26.95;;
71910;SDS011;59783;52.232;5.170;2023-03-01T06:22:41;39.90;;;32.85;;
71910;SDS011;59783;52.232;5.170;2023-03-01T06:25:07;34.30;;;28.08;;
71910;SDS011;59783;52.232;5.170;2023-03-01T06:27:32;34.05;;;27.80;;
71910;SDS011;59783;52.232;5.170;2023-03-01T06:29:58;35.53;;;28.23;;
71910;SDS011;59783;52.232;5.170;2023-03-01T06:32:23;36.90;;;29.80;;
71910;SDS011;59783;52.232;5.170;2023-03-01T06:34:49;35.83;;;27.53;;
71910;SDS011;59783;52.232;5.170;2023-03-01T06:37:14;38.53;;;31.38;;
71910;SDS011;59783;52.232;5.170;2023-03-01T06:39:39;34.63;;;26.70;;
71910;SDS011;59783;52.232;5.170;2023-03-01T06:42:04;38.47;;;27.13;;
71910;SDS011;59783;52.232;5.170;2023-03-01T06:44:29;37.23;;;27.93;;
71910;SDS011;59783;52.232;5.170;2023-03-01T06:46:55;37.67;;;30.40;;
71910;SDS011;59783;52.232;5.170;2023-03-01T06:49:20;39.30;;;28.40;;
71910;SDS011;59783;52.232;5.170;2023-03-01T06:51:45;43.03;;;31.17;;
71910;SDS011;59783;52.232;5.170;2023-03-01T06:54:11;39.45;;;27.50;;
71910;SDS011;59783;52.232;5.170;2023-03-01T06:56:36;33.85;;;25.42;;
71910;SDS011;59783;52.232;5.170;2023-03-01T06:59:02;36.13;;;25.63;;
71910;SDS011;59783;52.232;5.170;2023-03-01T07:01:27;39.83;;;27.17;;
71910;SDS011;59783;52.232;5.170;2023-03-01T07:03:53;39.30;;;29.33;;
71910;SDS011;59783;52.232;5.170;2023-03-01T07:06:18;42.30;;;30.13;;
71910;SDS011;59783;52.232;5.170;2023-03-01T07:08:43;47.05;;;30.15;;
71910;SDS011;59783;52.232;5.170;2023-03-01T07:11:08;43.70;;;33.03;;
71910;SDS011;59783;52.232;5.170;2023-03-01T07:13:34;43.70;;;32.73;;
71910;SDS011;59783;52.232;5.170;2023-03-01T07:15:59;42.17;;;31.77;;
71910;SDS011;59783;52.232;5.170;2023-03-01T07:18:24;43.03;;;31.03;;
71910;SDS011;59783;52.232;5.170;2023-03-01T07:20:49;45.13;;;30.83;;
71910;SDS011;59783;52.232;5.170;2023-03-01T07:23:14;43.27;;;30.30;;
71910;SDS011;59783;52.232;5.170;2023-03-01T07:25:40;45.78;;;31.63;;
71910;SDS011;59783;52.232;5.170;2023-03-01T07:28:05;46.60;;;33.75;;
71910;SDS011;59783;52.232;5.170;2023-03-01T07:30:30;43.90;;;32.70;;
71910;SDS011;59783;52.232;5.170;2023-03-01T07:32:57;45.95;;;33.97;;
71910;SDS011;59783;52.232;5.170;2023-03-01T07:35:22;48.83;;;35.60;;
71910;SDS011;59783;52.232;5.170;2023-03-01T07:37:48;52.03;;;34.92;;
71910;SDS011;59783;52.232;5.170;2023-03-01T07:40:13;49.30;;;33.87;;
71910;SDS011;59783;52.232;5.170;2023-03-01T07:42:38;50.10;;;35.37;;
71910;SDS011;59783;52.232;5.170;2023-03-01T07:45:04;51.87;;;35.70;;
71910;SDS011;59783;52.232;5.170;2023-03-01T07:47:30;50.92;;;36.75;;
71910;SDS011;59783;52.232;5.170;2023-03-01T07:49:55;50.80;;;37.53;;
71910;SDS011;59783;52.232;5.170;2023-03-01T07:52:20;53.93;;;37.67;;
71910;SDS011;59783;52.232;5.170;2023-03-01T07:54:46;49.27;;;35.60;;
71910;SDS011;59783;52.232;5.170;2023-03-01T07:57:11;48.10;;;36.47;;
71910;SDS011;59783;52.232;5.170;2023-03-01T07:59:36;46.90;;;35.35;;
71910;SDS011;59783;52.232;5.170;2023-03-01T08:02:02;49.93;;;33.70;;
71910;SDS011;59783;52.232;5.170;2023-03-01T08:04:27;48.17;;;35.77;;
71910;SDS011;59783;52.232;5.170;2023-03-01T08:06:54;47.40;;;35.85;;
71910;SDS011;59783;52.232;5.170;2023-03-01T08:09:19;47.70;;;34.05;;
71910;SDS011;59783;52.232;5.170;2023-03-01T08:11:44;51.10;;;35.57;;
71910;SDS011;59783;52.232;5.170;2023-03-01T08:14:09;49.63;;;35.67;;
71910;SDS011;59783;52.232;5.170;2023-03-01T08:16:35;46.92;;;36.10;;
71910;SDS011;59783;52.232;5.170;2023-03-01T08:19:10;46.17;;;32.35;;
71910;SDS011;59783;52.232;5.170;2023-03-01T08:21:36;52.72;;;34.60;;
71910;SDS011;59783;52.232;5.170;2023-03-01T08:24:02;53.35;;;38.22;;
71910;SDS011;59783;52.232;5.170;2023-03-01T08:26:27;46.65;;;37.63;;
71910;SDS011;59783;52.232;5.170;2023-03-01T08:28:52;43.75;;;33.20;;
71910;SDS011;59783;52.232;5.170;2023-03-01T08:31:19;40.90;;;32.17;;
71910;SDS011;59783;52.232;5.170;2023-03-01T08:33:45;43.08;;;33.88;;
71910;SDS011;59783;52.232;5.170;2023-03-01T08:36:15;42.30;;;33.78;;
71910;SDS011;59783;52.232;5.170;2023-03-01T08:38:41;40.65;;;34.72;;
71910;SDS011;59783;52.232;5.170;2023-03-01T08:41:06;43.63;;;32.37;;
71910;SDS011;59783;52.232;5.170;2023-03-01T08:43:31;38.97;;;31.15;;
71910;SDS011;59783;52.232;5.170;2023-03-01T08:45:56;38.57;;;30.53;;
71910;SDS011;59783;52.232;5.170;2023-03-01T08:48:22;35.47;;;28.83;;
71910;SDS011;59783;52.232;5.170;2023-03-01T08:50:47;36.80;;;29.33;;
71910;SDS011;59783;52.232;5.170;2023-03-01T08:53:12;37.20;;;30.17;;
71910;SDS011;59783;52.232;5.170;2023-03-01T08:55:37;33.00;;;29.37;;
71910;SDS011;59783;52.232;5.170;2023-03-01T08:58:02;35.23;;;26.77;;
71910;SDS011;59783;52.232;5.170;2023-03-01T09:00:28;36.30;;;29.20;;
71910;SDS011;59783;52.232;5.170;2023-03-01T09:02:53;34.63;;;30.93;;
71910;SDS011;59783;52.232;5.170;2023-03-01T09:05:18;34.60;;;29.37;;
71910;SDS011;59783;52.232;5.170;2023-03-01T09:07:43;32.80;;;27.47;;
71910;SDS011;59783;52.232;5.170;2023-03-01T09:10:08;32.17;;;26.37;;
71910;SDS011;59783;52.232;5.170;2023-03-01T09:12:34;31.98;;;27.17;;
71910;SDS011;59783;52.232;5.170;2023-03-01T09:14:59;32.63;;;28.00;;
71910;SDS011;59783;52.232;5.170;2023-03-01T09:17:24;31.13;;;27.83;;
71910;SDS011;59783;52.232;5.170;2023-03-01T09:19:50;30.37;;;27.27;;
71910;SDS011;59783;52.232;5.170;2023-03-01T09:22:15;28.52;;;25.52;;
71910;SDS011;59783;52.232;5.170;2023-03-01T09:24:40;29.33;;;26.23;;
71910;SDS011;59783;52.232;5.170;2023-03-01T09:27:05;28.50;;;25.60;;
71910;SDS011;59783;52.232;5.170;2023-03-01T09:29:33;29.88;;;26.67;;
71910;SDS011;59783;52.232;5.170;2023-03-01T09:31:58;33.43;;;30.13;;
71910;SDS011;59783;52.232;5.170;2023-03-01T09:34:23;30.67;;;27.30;;
71910;SDS011;59783;52.232;5.170;2023-03-01T09:36:49;33.20;;;29.65;;
71910;SDS011;59783;52.232;5.170;2023-03-01T09:39:15;30.10;;;25.42;;
71910;SDS011;59783;52.232;5.170;2023-03-01T09:41:46;31.02;;;27.80;;
71910;SDS011;59783;52.232;5.170;2023-03-01T09:44:18;30.70;;;27.58;;
71910;SDS011;59783;52.232;5.170;2023-03-01T09:46:45;30.05;;;26.40;;
71910;SDS011;59783;52.232;5.170;2023-03-01T09:49:15;30.20;;;25.42;;
71910;SDS011;59783;52.232;5.170;2023-03-01T09:51:42;29.25;;;26.23;;
71910;SDS011;59783;52.232;5.170;2023-03-01T09:54:11;29.05;;;25.92;;
71910;SDS011;59783;52.232;5.170;2023-03-01T09:57:38;30.57;;;27.27;;
71910;SDS011;59783;52.232;5.170;2023-03-01T10:02:26;30.42;;;27.23;;
71910;SDS011;59783;52.232;5.170;2023-03-01T10:04:54;28.25;;;25.33;;
71910;SDS011;59783;52.232;5.170;2023-03-01T10:09:54;27.80;;;24.55;;
71910;SDS011;59783;52.232;5.170;2023-03-01T10:12:24;27.70;;;24.80;;
71910;SDS011;59783;52.232;5.170;2023-03-01T10:17:41;27.45;;;24.55;;
71910;SDS011;59783;52.232;5.170;2023-03-01T10:22:45;26.08;;;23.33;;
71910;SDS011;59783;52.232;5.170;2023-03-01T10:25:15;25.42;;;22.67;;
71910;SDS011;59783;52.232;5.170;2023-03-01T10:32:32;25.90;;;23.20;;
71910;SDS011;59783;52.232;5.170;2023-03-01T10:34:57;27.07;;;24.27;;
71910;SDS011;59783;52.232;5.170;2023-03-01T10:37:22;26.00;;;23.23;;
71910;SDS011;59783;52.232;5.170;2023-03-01T10:42:25;23.85;;;21.35;;
71910;SDS011;59783;52.232;5.170;2023-03-01T10:44:50;25.70;;;22.95;;
71910;SDS011;59783;52.232;5.170;2023-03-01T10:52:18;24.95;;;22.35;;
71910;SDS011;59783;52.232;5.170;2023-03-01T10:54:49;26.73;;;24.00;;
71910;SDS011;59783;52.232;5.170;2023-03-01T10:57:30;27.95;;;25.13;;
71910;SDS011;59783;52.232;5.170;2023-03-01T11:00:14;27.90;;;24.30;;
71910;SDS011;59783;52.232;5.170;2023-03-01T11:02:45;25.65;;;22.95;;
71910;SDS011;59783;52.232;5.170;2023-03-01T11:10:35;26.90;;;24.17;;
71910;SDS011;59783;52.232;5.170;2023-03-01T11:13:08;26.08;;;23.35;;
71910;SDS011;59783;52.232;5.170;2023-03-01T11:15:33;26.33;;;22.73;;
71910;SDS011;59783;52.232;5.170;2023-03-01T11:17:59;29.38;;;26.42;;
71910;SDS011;59783;52.232;5.170;2023-03-01T11:20:25;28.60;;;25.73;;
71910;SDS011;59783;52.232;5.170;2023-03-01T11:23:11;26.23;;;23.27;;
71910;SDS011;59783;52.232;5.170;2023-03-01T11:25:38;27.25;;;24.58;;
71910;SDS011;59783;52.232;5.170;2023-03-01T11:28:05;28.27;;;25.42;;
71910;SDS011;59783;52.232;5.170;2023-03-01T11:30:32;25.70;;;23.08;;
71910;SDS011;59783;52.232;5.170;2023-03-01T11:35:33;25.35;;;22.23;;
71910;SDS011;59783;52.232;5.170;2023-03-01T11:38:04;25.38;;;22.65;;
71910;SDS011;59783;52.232;5.170;2023-03-01T11:40:35;26.65;;;24.02;;
71910;SDS011;59783;52.232;5.170;2023-03-01T11:45:29;26.70;;;24.08;;
71910;SDS011;59783;52.232;5.170;2023-03-01T11:48:06;28.98;;;26.15;;
71910;SDS011;59783;52.232;5.170;2023-03-01T11:50:35;27.70;;;24.85;;
71910;SDS011;59783;52.232;5.170;2023-03-01T11:53:07;25.58;;;22.88;;
71910;SDS011;59783;52.232;5.170;2023-03-01T11:55:57;26.40;;;23.70;;
71910;SDS011;59783;52.232;5.170;2023-03-01T11:58:31;27.63;;;24.98;;
71910;SDS011;59783;52.232;5.170;2023-03-01T12:01:02;26.45;;;22.52;;
71910;SDS011;59783;52.232;5.170;2023-03-01T12:03:46;25.80;;;22.95;;
71910;SDS011;59783;52.232;5.170;2023-03-01T12:06:26;26.58;;;23.88;;
71910;SDS011;59783;52.232;5.170;2023-03-01T12:29:13;27.05;;;24.25;;
71910;SDS011;59783;52.232;5.170;2023-03-01T12:31:44;29.98;;;27.08;;
71910;SDS011;59783;52.232;5.170;2023-03-01T12:37:11;25.05;;;22.45;;
71910;SDS011;59783;52.232;5.170;2023-03-01T12:49:28;24.08;;;21.67;;
71910;SDS011;59783;52.232;5.170;2023-03-01T12:54:47;23.85;;;21.27;;
71910;SDS011;59783;52.232;5.170;2023-03-01T12:57:16;24.63;;;22.10;;
71910;SDS011;59783;52.232;5.170;2023-03-01T12:59:47;26.20;;;23.55;;
71910;SDS011;59783;52.232;5.170;2023-03-01T13:07:35;25.70;;;23.08;;
71910;SDS011;59783;52.232;5.170;2023-03-01T13:15:31;25.42;;;22.98;;
71910;SDS011;59783;52.232;5.170;2023-03-01T13:17:56;25.10;;;22.48;;
71910;SDS011;59783;52.232;5.170;2023-03-01T13:20:32;26.58;;;23.98;;
71910;SDS011;59783;52.232;5.170;2023-03-01T13:26:24;26.95;;;24.23;;
71910;SDS011;59783;52.232;5.170;2023-03-01T13:28:40;24.98;;;22.50;;
71910;SDS011;59783;52.232;5.170;2023-03-01T13:33:50;25.73;;;23.30;;
71910;SDS011;59783;52.232;5.170;2023-03-01T13:41:48;27.73;;;25.02;;
71910;SDS011;59783;52.232;5.170;2023-03-01T13:46:48;25.52;;;23.02;;
71910;SDS011;59783;52.232;5.170;2023-03-01T13:49:15;25.85;;;23.23;;
71910;SDS011;59783;52.232;5.170;2023-03-01T13:51:41;26.35;;;23.92;;
71910;SDS011;59783;52.232;5.170;2023-03-01T13:54:09;25.73;;;23.23;;
71910;SDS011;59783;52.232;5.170;2023-03-01T13:56:36;23.02;;;20.67;;
71910;SDS011;59783;52.232;5.170;2023-03-01T13:59:05;26.98;;;24.35;;
71910;SDS011;59783;52.232;5.170;2023-03-01T14:01:37;24.38;;;21.92;;
71910;SDS011;59783;52.232;5.170;2023-03-01T14:04:03;25.20;;;22.70;;
71910;SDS011;59783;52.232;5.170;2023-03-01T14:06:32;27.80;;;25.02;;
71910;SDS011;59783;52.232;5.170;2023-03-01T14:09:12;24.42;;;22.02;;
71910;SDS011;59783;52.232;5.170;2023-03-01T14:11:49;27.08;;;24.20;;
71910;SDS011;59783;52.232;5.170;2023-03-01T14:17:00;27.75;;;24.88;;
71910;SDS011;59783;52.232;5.170;2023-03-01T14:19:29;26.83;;;23.58;;
71910;SDS011;59783;52.232;5.170;2023-03-01T14:21:59;23.73;;;21.33;;
71910;SDS011;59783;52.232;5.170;2023-03-01T14:24:27;24.52;;;22.00;;
71910;SDS011;59783;52.232;5.170;2023-03-01T14:26:52;25.90;;;23.40;;
71910;SDS011;59783;52.232;5.170;2023-03-01T14:29:24;28.00;;;25.03;;
71910;SDS011;59783;52.232;5.170;2023-03-01T14:31:50;25.38;;;22.77;;
71910;SDS011;59783;52.232;5.170;2023-03-01T14:34:19;27.10;;;24.47;;
71910;SDS011;59783;52.232;5.170;2023-03-01T14:36:44;24.52;;;21.60;;
71910;SDS011;59783;52.232;5.170;2023-03-01T14:39:17;26.00;;;23.40;;
71910;SDS011;59783;52.232;5.170;2023-03-01T14:41:42;25.33;;;22.80;;
71910;SDS011;59783;52.232;5.170;2023-03-01T14:44:11;25.73;;;23.13;;
71910;SDS011;59783;52.232;5.170;2023-03-01T14:46:38;25.95;;;23.23;;
71910;SDS011;59783;52.232;5.170;2023-03-01T14:49:13;26.77;;;24.02;;
71910;SDS011;59783;52.232;5.170;2023-03-01T14:51:40;25.60;;;22.98;;
71910;SDS011;59783;52.232;5.170;2023-03-01T14:54:23;27.55;;;24.83;;
71910;SDS011;59783;52.232;5.170;2023-03-01T14:56:49;26.13;;;23.50;;
71910;SDS011;59783;52.232;5.170;2023-03-01T14:59:15;26.92;;;23.45;;
71910;SDS011;59783;52.232;5.170;2023-03-01T15:01:41;25.63;;;23.13;;
71910;SDS011;59783;52.232;5.170;2023-03-01T15:04:07;25.48;;;22.88;;
71910;SDS011;59783;52.232;5.170;2023-03-01T15:06:34;27.85;;;24.90;;
71910;SDS011;59783;52.232;5.170;2023-03-01T15:08:59;25.87;;;23.20;;
71910;SDS011;59783;52.232;5.170;2023-03-01T15:11:29;26.25;;;23.48;;
71910;SDS011;59783;52.232;5.170;2023-03-01T15:13:54;26.30;;;23.70;;
71910;SDS011;59783;52.232;5.170;2023-03-01T15:16:24;26.90;;;24.15;;
71910;SDS011;59783;52.232;5.170;2023-03-01T15:18:51;24.70;;;22.13;;
71910;SDS011;59783;52.232;5.170;2023-03-01T15:21:27;26.65;;;23.92;;
71910;SDS011;59783;52.232;5.170;2023-03-01T15:24:05;27.13;;;24.42;;
71910;SDS011;59783;52.232;5.170;2023-03-01T15:26:39;25.35;;;22.75;;
71910;SDS011;59783;52.232;5.170;2023-03-01T15:29:04;26.33;;;23.85;;
71910;SDS011;59783;52.232;5.170;2023-03-01T15:31:41;24.17;;;21.80;;
71910;SDS011;59783;52.232;5.170;2023-03-01T15:34:08;25.20;;;22.73;;
71910;SDS011;59783;52.232;5.170;2023-03-01T15:36:38;25.58;;;22.83;;
71910;SDS011;59783;52.232;5.170;2023-03-01T15:39:25;26.35;;;22.60;;
71910;SDS011;59783;52.232;5.170;2023-03-01T15:41:49;26.67;;;23.77;;
71910;SDS011;59783;52.232;5.170;2023-03-01T15:44:23;25.40;;;22.80;;
71910;SDS011;59783;52.232;5.170;2023-03-01T15:46:49;29.05;;;26.25;;
71910;SDS011;59783;52.232;5.170;2023-03-01T15:49:35;26.30;;;23.57;;
71910;SDS011;59783;52.232;5.170;2023-03-01T15:52:02;24.30;;;21.83;;
71910;SDS011;59783;52.232;5.170;2023-03-01T15:54:28;25.40;;;22.70;;
71910;SDS011;59783;52.232;5.170;2023-03-01T15:56:54;26.33;;;23.65;;
71910;SDS011;59783;52.232;5.170;2023-03-01T15:59:19;27.58;;;24.73;;
71910;SDS011;59783;52.232;5.170;2023-03-01T16:01:44;26.95;;;24.33;;
71910;SDS011;59783;52.232;5.170;2023-03-01T16:04:10;25.85;;;23.08;;
71910;SDS011;59783;52.232;5.170;2023-03-01T16:06:38;25.40;;;22.70;;